Time,TemperatureF,DewpointF,PressureIn,WindDirection,WindDirectionDegrees,WindSpeedMPH,WindSpeedGustMPH,Humidity,HourlyPrecipIn,Conditions,Clouds,dailyrainin,SoftwareType,DateUTC
2013-09-11 00:01:00,65.7,64.8,30.02,ESE,117,0.0,0.0,97,0.00,,,0.00,meteohub,2013-09-11 04:01:00,
2013-09-11 00:02:00,65.7,64.8,30.02,ESE,117,0.0,0.0,97,0.00,,,0.00,meteohub,2013-09-11 04:02:00,
2013-09-11 00:03:00,65.7,64.8,30.02,ESE,117,0.0,0.0,97,0.00,,,0.00,meteohub,2013-09-11 04:03:00,
2013-09-11 00:06:00,65.7,64.8,30.02,ESE,117,0.0,0.0,97,0.00,,,0.00,meteohub,2013-09-11 04:06:00,
2013-09-11 00:11:00,65.7,64.8,30.02,ESE,117,0.0,0.0,97,0.00,,,0.00,meteohub,2013-09-11 04:11:00,
2013-09-11 00:16:00,65.7,64.8,30.02,ESE,117,0.0,0.0,97,0.00,,,0.00,meteohub,2013-09-11 04:16:00,
2013-09-11 00:21:00,65.7,64.8,30.01,ESE,117,0.0,0.0,97,0.00,,,0.00,meteohub,2013-09-11 04:21:00,
2013-09-11 00:26:00,65.7,64.8,30.01,ESE,117,0.0,0.0,97,0.00,,,0.00,meteohub,2013-09-11 04:26:00,
2013-09-11 00:31:00,65.7,64.8,30.01,ESE,117,0.0,0.0,97,0.00,,,0.00,meteohub,2013-09-11 04:31:00,
2013-09-11 00:36:00,65.7,64.8,30.02,ESE,117,0.0,0.0,97,0.00,,,0.00,meteohub,2013-09-11 04:36:00,
2013-09-11 00:41:00,65.5,64.6,30.01,ESE,117,0.0,0.0,97,0.00,,,0.00,meteohub,2013-09-11 04:41:00,
2013-09-11 00:46:00,65.5,64.6,30.01,ESE,117,0.0,0.0,97,0.00,,,0.00,meteohub,2013-09-11 04:46:00,
2013-09-11 00:51:00,65.3,64.4,30.01,ESE,117,0.0,0.0,97,0.00,,,0.00,meteohub,2013-09-11 04:51:00,
2013-09-11 00:56:00,65.1,64.2,30.01,ESE,117,0.0,0.0,97,0.00,,,0.00,meteohub,2013-09-11 04:56:00,
2013-09-11 01:01:00,65.1,64.2,30.01,ESE,117,0.0,0.0,97,0.00,,,0.00,meteohub,2013-09-11 05:01:00,
2013-09-11 01:06:00,65.1,64.2,30.01,ESE,117,0.0,0.0,97,0.00,,,0.00,meteohub,2013-09-11 05:06:00,
2013-09-11 01:11:00,65.1,64.2,30.01,ESE,117,0.0,0.0,97,0.00,,,0.00,meteohub,2013-09-11 05:11:00,
2013-09-11 01:16:00,64.9,64.0,30.01,ESE,117,0.0,0.0,97,0.00,,,0.00,meteohub,2013-09-11 05:16:00,
2013-09-11 01:21:00,64.9,64.0,30.01,ESE,117,0.0,0.0,97,0.00,,,0.00,meteohub,2013-09-11 05:21:00,
2013-09-11 01:26:00,64.9,64.0,30.01,ESE,117,0.0,0.0,97,0.00,,,0.00,meteohub,2013-09-11 05:26:00,
2013-09-11 01:31:00,64.8,63.9,30.01,ESE,117,0.0,0.0,97,0.00,,,0.00,meteohub,2013-09-11 05:31:00,
2013-09-11 01:36:00,64.8,63.9,30.01,ESE,117,0.0,0.0,97,0.00,,,0.00,meteohub,2013-09-11 05:36:00,
2013-09-11 01:41:00,64.8,63.9,30.01,ESE,117,0.0,0.0,97,0.00,,,0.00,meteohub,2013-09-11 05:41:00,
2013-09-11 01:46:00,64.8,63.9,30.01,ESE,117,0.0,0.0,97,0.00,,,0.00,meteohub,2013-09-11 05:46:00,
2013-09-11 01:51:00,64.8,63.9,30.01,ESE,117,0.0,0.0,97,0.00,,,0.00,meteohub,2013-09-11 05:51:00,
2013-09-11 01:56:00,64.6,63.7,30.01,ESE,117,0.0,0.0,97,0.00,,,0.00,meteohub,2013-09-11 05:56:00,
2013-09-11 02:01:00,64.6,63.7,30.01,ESE,117,0.0,0.0,97,0.00,,,0.00,meteohub,2013-09-11 06:01:00,
2013-09-11 02:06:00,64.6,63.7,30.01,ESE,117,0.0,0.0,97,0.00,,,0.00,meteohub,2013-09-11 06:06:00,
2013-09-11 02:11:00,64.6,63.7,30.01,ESE,117,0.0,0.0,97,0.00,,,0.00,meteohub,2013-09-11 06:11:00,
2013-09-11 02:16:00,64.6,63.7,30.01,ESE,117,0.0,0.0,97,0.00,,,0.00,meteohub,2013-09-11 06:16:00,
2013-09-11 02:21:00,64.4,63.5,30.01,ESE,117,0.0,0.0,97,0.00,,,0.00,meteohub,2013-09-11 06:21:00,
2013-09-11 02:26:00,64.4,63.5,30.01,ESE,117,0.0,0.0,97,0.00,,,0.00,meteohub,2013-09-11 06:26:00,
2013-09-11 02:31:00,64.4,63.5,30.01,ESE,117,0.0,0.0,97,0.00,,,0.00,meteohub,2013-09-11 06:31:00,
2013-09-11 02:36:00,64.2,63.3,30.01,ESE,117,0.0,0.0,97,0.00,,,0.00,meteohub,2013-09-11 06:36:00,
2013-09-11 02:41:00,64.2,63.3,30.01,ESE,117,0.0,0.0,97,0.00,,,0.00,meteohub,2013-09-11 06:41:00,
2013-09-11 02:46:00,64.0,63.1,30.01,ESE,117,0.0,0.0,97,0.00,,,0.00,meteohub,2013-09-11 06:46:00,
2013-09-11 02:51:00,64.0,63.5,30.01,ESE,117,0.0,0.0,98,0.00,,,0.00,meteohub,2013-09-11 06:51:00,
2013-09-11 02:56:00,64.0,63.5,30.01,ESE,117,0.0,0.0,98,0.00,,,0.00,meteohub,2013-09-11 06:56:00,
2013-09-11 03:01:00,64.0,63.5,30.01,ESE,117,0.0,0.0,98,0.00,,,0.00,meteohub,2013-09-11 07:01:00,
2013-09-11 03:06:00,64.0,63.5,30.01,ESE,117,0.0,0.0,98,0.00,,,0.00,meteohub,2013-09-11 07:06:00,
2013-09-11 03:11:00,64.0,63.5,30.01,ESE,117,0.0,0.0,98,0.00,,,0.00,meteohub,2013-09-11 07:11:00,
2013-09-11 03:16:00,64.0,63.5,30.01,ESE,117,0.0,0.0,98,0.00,,,0.00,meteohub,2013-09-11 07:16:00,
2013-09-11 03:21:00,63.9,63.0,30.01,ESE,117,0.0,0.0,97,0.00,,,0.00,meteohub,2013-09-11 07:21:00,
2013-09-11 03:26:00,63.9,63.0,30.00,ESE,117,0.0,0.0,97,0.00,,,0.00,meteohub,2013-09-11 07:26:00,
2013-09-11 03:31:00,63.9,63.0,30.00,ESE,117,0.0,0.0,97,0.00,,,0.00,meteohub,2013-09-11 07:31:00,
2013-09-11 03:36:00,63.9,63.3,30.00,ESE,117,0.0,0.0,98,0.00,,,0.00,meteohub,2013-09-11 07:36:00,
2013-09-11 03:41:00,63.9,63.3,30.01,ESE,117,0.0,0.0,98,0.00,,,0.00,meteohub,2013-09-11 07:41:00,
2013-09-11 03:46:00,63.9,63.3,30.00,ESE,117,0.0,0.0,98,0.00,,,0.00,meteohub,2013-09-11 07:46:00,
2013-09-11 03:51:00,63.9,63.3,30.00,ESE,117,0.0,0.0,98,0.00,,,0.00,meteohub,2013-09-11 07:51:00,
2013-09-11 03:56:00,63.9,63.3,30.01,ESE,117,0.0,0.0,98,0.00,,,0.00,meteohub,2013-09-11 07:56:00,
2013-09-11 04:01:00,63.9,63.3,30.01,ESE,117,0.0,0.0,98,0.00,,,0.00,meteohub,2013-09-11 08:01:00,
2013-09-11 04:06:00,63.7,63.1,30.00,ESE,117,0.0,0.0,98,0.00,,,0.00,meteohub,2013-09-11 08:06:00,
2013-09-11 04:11:00,63.7,62.8,30.00,ESE,117,0.0,0.0,97,0.00,,,0.00,meteohub,2013-09-11 08:11:00,
2013-09-11 04:16:00,63.7,63.1,30.00,ESE,117,0.0,0.0,98,0.00,,,0.00,meteohub,2013-09-11 08:16:00,
2013-09-11 04:21:00,63.7,63.1,30.00,ESE,117,0.0,0.0,98,0.00,,,0.00,meteohub,2013-09-11 08:21:00,
2013-09-11 04:26:00,63.7,63.1,30.00,ESE,117,0.0,0.0,98,0.00,,,0.00,meteohub,2013-09-11 08:26:00,
2013-09-11 04:31:00,63.7,63.1,30.00,ESE,117,0.0,2.0,98,0.00,,,0.00,meteohub,2013-09-11 08:31:00,
2013-09-11 04:36:00,63.7,63.1,30.01,ESE,117,0.0,2.0,98,0.00,,,0.00,meteohub,2013-09-11 08:36:00,
2013-09-11 04:41:00,63.7,63.1,30.01,ESE,117,0.0,1.0,98,0.00,,,0.00,meteohub,2013-09-11 08:41:00,
2013-09-11 04:46:00,63.7,63.1,30.01,ESE,117,0.0,1.0,98,0.00,,,0.00,meteohub,2013-09-11 08:46:00,
2013-09-11 04:51:00,63.7,63.1,30.01,ESE,117,0.0,1.0,98,0.00,,,0.00,meteohub,2013-09-11 08:51:00,
2013-09-11 04:56:00,63.7,63.1,30.01,ESE,117,0.0,1.0,98,0.00,,,0.00,meteohub,2013-09-11 08:56:00,
2013-09-11 05:01:00,63.7,63.1,30.01,ESE,117,0.0,1.0,98,0.00,,,0.00,meteohub,2013-09-11 09:01:00,
2013-09-11 05:06:00,63.7,63.1,30.01,ESE,117,0.0,1.0,98,0.00,,,0.00,meteohub,2013-09-11 09:06:00,
2013-09-11 05:11:00,63.7,63.1,30.01,ESE,117,0.0,1.0,98,0.00,,,0.00,meteohub,2013-09-11 09:11:00,
2013-09-11 05:16:00,63.7,63.1,30.01,ESE,117,0.0,1.0,98,0.00,,,0.00,meteohub,2013-09-11 09:16:00,
2013-09-11 05:22:00,63.7,63.1,30.01,ESE,117,0.0,2.0,98,0.00,,,0.00,meteohub,2013-09-11 09:22:00,
2013-09-11 05:27:00,63.7,63.1,30.01,ESE,117,0.0,2.0,98,0.00,,,0.00,meteohub,2013-09-11 09:27:00,
2013-09-11 05:32:00,63.9,63.3,30.01,ESE,117,0.0,1.0,98,0.00,,,0.00,meteohub,2013-09-11 09:32:00,
2013-09-11 05:37:00,63.9,63.3,30.01,ESE,117,0.0,1.0,98,0.00,,,0.00,meteohub,2013-09-11 09:37:00,
2013-09-11 05:42:00,63.9,63.3,30.01,ESE,117,0.0,2.0,98,0.00,,,0.00,meteohub,2013-09-11 09:42:00,
2013-09-11 05:47:00,63.9,63.3,30.01,ESE,117,0.0,2.0,98,0.00,,,0.00,meteohub,2013-09-11 09:47:00,
2013-09-11 05:52:00,63.9,63.3,30.01,ESE,117,0.0,2.0,98,0.00,,,0.00,meteohub,2013-09-11 09:52:00,
2013-09-11 05:57:00,63.9,63.3,30.01,ESE,117,0.0,1.0,98,0.00,,,0.00,meteohub,2013-09-11 09:57:00,
2013-09-11 06:02:00,63.9,63.3,30.01,ESE,117,0.0,2.0,98,0.00,,,0.00,meteohub,2013-09-11 10:02:00,
2013-09-11 06:07:00,63.9,63.3,30.02,ESE,117,1.0,2.0,98,0.00,,,0.00,meteohub,2013-09-11 10:07:00,
2013-09-11 06:12:00,63.9,63.3,30.02,ESE,117,2.0,2.0,98,0.00,,,0.00,meteohub,2013-09-11 10:12:00,
2013-09-11 06:17:00,63.9,63.3,30.02,ESE,117,0.0,3.0,98,0.00,,,0.00,meteohub,2013-09-11 10:17:00,
2013-09-11 06:22:00,63.9,63.3,30.02,ESE,117,0.0,3.0,98,0.00,,,0.00,meteohub,2013-09-11 10:22:00,
2013-09-11 06:27:00,63.9,63.3,30.02,ESE,117,0.0,3.0,98,0.00,,,0.00,meteohub,2013-09-11 10:27:00,
2013-09-11 06:32:00,63.9,63.3,30.03,ESE,117,0.0,1.0,98,0.00,,,0.00,meteohub,2013-09-11 10:32:00,
2013-09-11 06:37:00,63.9,63.3,30.03,ESE,117,0.0,1.0,98,0.00,,,0.00,meteohub,2013-09-11 10:37:00,
2013-09-11 06:42:00,63.9,63.3,30.03,ESE,117,0.0,2.0,98,0.00,,,0.00,meteohub,2013-09-11 10:42:00,
2013-09-11 06:47:00,63.9,63.3,30.03,ESE,117,0.0,2.0,98,0.00,,,0.00,meteohub,2013-09-11 10:47:00,
2013-09-11 06:52:00,63.9,63.3,30.03,ESE,117,0.0,2.0,98,0.00,,,0.00,meteohub,2013-09-11 10:52:00,
2013-09-11 06:57:00,64.0,63.5,30.03,ESE,117,0.0,2.0,98,0.00,,,0.00,meteohub,2013-09-11 10:57:00,
2013-09-11 07:02:00,64.0,63.5,30.03,ESE,117,0.0,2.0,98,0.00,,,0.00,meteohub,2013-09-11 11:02:00,
2013-09-11 07:07:00,64.0,63.5,30.03,ESE,117,0.0,2.0,98,0.00,,,0.00,meteohub,2013-09-11 11:07:00,
2013-09-11 07:12:00,64.0,63.5,30.03,ESE,117,0.0,3.0,98,0.00,,,0.00,meteohub,2013-09-11 11:12:00,
2013-09-11 07:17:00,64.2,63.7,30.03,ESE,117,1.0,3.0,98,0.00,,,0.00,meteohub,2013-09-11 11:17:00,
2013-09-11 07:22:00,64.4,63.9,30.03,ESE,120,0.0,2.0,98,0.00,,,0.00,meteohub,2013-09-11 11:22:00,
2013-09-11 07:27:00,64.6,64.0,30.03,ESE,120,0.0,3.0,98,0.00,,,0.00,meteohub,2013-09-11 11:27:00,
2013-09-11 07:32:00,64.9,64.6,30.03,ESE,118,0.0,3.0,99,0.00,,,0.00,meteohub,2013-09-11 11:32:00,
2013-09-11 07:37:00,65.3,64.9,30.03,NW,304,0.0,2.0,99,0.00,,,0.00,meteohub,2013-09-11 11:37:00,
2013-09-11 07:42:00,65.7,65.3,30.03,NW,323,2.0,5.0,99,0.00,,,0.00,meteohub,2013-09-11 11:42:00,
2013-09-11 07:47:00,66.0,65.7,30.02,SSW,192,1.0,5.0,99,0.00,,,0.00,meteohub,2013-09-11 11:47:00,
2013-09-11 07:52:00,66.6,66.2,30.02,WNW,297,0.0,5.0,99,0.00,,,0.00,meteohub,2013-09-11 11:52:00,
2013-09-11 07:57:00,67.3,66.9,30.03,ESE,118,0.0,5.0,99,0.00,,,0.00,meteohub,2013-09-11 11:57:00,
2013-09-11 08:02:00,68.0,67.6,30.03,ESE,118,0.0,5.0,99,0.00,,,0.00,meteohub,2013-09-11 12:02:00,
2013-09-11 08:07:00,68.0,67.6,30.02,WNW,284,0.0,3.0,99,0.00,,,0.00,meteohub,2013-09-11 12:07:00,
2013-09-11 08:12:00,68.4,68.0,30.02,SE,135,0.0,3.0,99,0.00,,,0.00,meteohub,2013-09-11 12:12:00,
2013-09-11 08:17:00,68.7,68.4,30.02,SE,135,0.0,3.0,99,0.00,,,0.00,meteohub,2013-09-11 12:17:00,
2013-09-11 08:22:00,68.9,68.5,30.02,SE,135,0.0,3.0,99,0.00,,,0.00,meteohub,2013-09-11 12:22:00,
2013-09-11 08:27:00,69.4,69.1,30.02,NW,316,0.0,2.0,99,0.00,,,0.00,meteohub,2013-09-11 12:27:00,
2013-09-11 08:32:00,69.6,69.3,30.02,NW,313,1.0,2.0,99,0.00,,,0.00,meteohub,2013-09-11 12:32:00,
2013-09-11 08:37:00,70.2,69.8,30.02,South,186,1.0,3.0,99,0.00,,,0.00,meteohub,2013-09-11 12:37:00,
2013-09-11 08:42:00,70.7,70.3,30.02,NW,324,0.0,3.0,99,0.00,,,0.00,meteohub,2013-09-11 12:42:00,
2013-09-11 08:47:00,71.8,71.4,30.02,ESE,122,11.0,11.0,99,0.00,,,0.00,meteohub,2013-09-11 12:47:00,
2013-09-11 08:52:00,73.0,72.7,30.02,NNW,347,0.0,12.0,99,0.00,,,0.00,meteohub,2013-09-11 12:52:00,
2013-09-11 08:57:00,74.1,71.2,30.02,WNW,301,1.0,12.0,91,0.00,,,0.00,meteohub,2013-09-11 12:57:00,
2013-09-11 09:02:00,75.7,72.3,30.02,NW,324,0.0,12.0,89,0.00,,,0.00,meteohub,2013-09-11 13:02:00,
2013-09-11 09:07:00,76.5,71.6,30.02,East,92,0.0,5.0,85,0.00,,,0.00,meteohub,2013-09-11 13:07:00,
2013-09-11 09:12:00,77.2,72.3,30.02,ESE,112,0.0,5.0,85,0.00,,,0.00,meteohub,2013-09-11 13:12:00,
2013-09-11 09:17:00,77.7,72.1,30.01,WSW,239,0.0,3.0,83,0.00,,,0.00,meteohub,2013-09-11 13:17:00,
2013-09-11 09:22:00,78.4,72.1,30.02,NNW,344,1.0,3.0,81,0.00,,,0.00,meteohub,2013-09-11 13:22:00,
2013-09-11 09:27:00,79.5,72.1,30.01,NNW,329,1.0,10.0,78,0.00,,,0.00,meteohub,2013-09-11 13:27:00,
2013-09-11 09:32:00,80.2,72.3,30.01,NNE,13,3.0,10.0,77,0.00,,,0.00,meteohub,2013-09-11 13:32:00,
2013-09-11 09:37:00,80.8,72.1,30.01,ESE,122,1.0,10.0,75,0.00,,,0.00,meteohub,2013-09-11 13:37:00,
2013-09-11 09:42:00,81.0,73.0,30.01,SE,145,0.0,10.0,77,0.00,,,0.00,meteohub,2013-09-11 13:42:00,
2013-09-11 09:47:00,81.1,71.6,30.01,NW,320,4.0,6.0,73,0.00,,,0.00,meteohub,2013-09-11 13:47:00,
2013-09-11 09:52:00,81.5,72.0,30.01,NNW,331,2.0,11.0,73,0.00,,,0.00,meteohub,2013-09-11 13:52:00,
2013-09-11 09:57:00,81.7,72.1,30.01,North,351,0.0,13.0,73,0.00,,,0.00,meteohub,2013-09-11 13:57:00,
2013-09-11 10:02:00,81.9,72.0,30.01,NNW,339,1.0,13.0,72,0.00,,,0.00,meteohub,2013-09-11 14:02:00,
2013-09-11 10:07:00,82.0,72.1,30.01,NNW,338,3.0,13.0,72,0.00,,,0.00,meteohub,2013-09-11 14:07:00,
2013-09-11 10:12:00,82.2,71.4,30.01,NNW,330,4.0,7.0,70,0.00,,,0.00,meteohub,2013-09-11 14:12:00,
2013-09-11 10:17:00,82.6,71.8,30.00,North,354,3.0,10.0,70,0.00,,,0.00,meteohub,2013-09-11 14:17:00,
2013-09-11 10:21:00,82.6,72.1,30.00,NNW,338,3.0,10.0,71,0.00,,,0.00,meteohub,2013-09-11 14:21:00,
2013-09-11 10:26:00,82.8,72.0,30.00,NW,325,4.0,7.0,70,0.00,,,0.00,meteohub,2013-09-11 14:26:00,
2013-09-11 10:31:00,82.9,71.8,30.00,NNW,341,3.0,7.0,69,0.00,,,0.00,meteohub,2013-09-11 14:31:00,
2013-09-11 10:36:00,83.1,72.7,30.00,North,355,0.0,6.0,71,0.00,,,0.00,meteohub,2013-09-11 14:36:00,
2013-09-11 10:41:00,83.7,72.3,29.99,ESE,106,0.0,6.0,69,0.00,,,0.00,meteohub,2013-09-11 14:41:00,
2013-09-11 10:46:00,84.0,72.3,29.99,NNW,341,3.0,5.0,68,0.00,,,0.00,meteohub,2013-09-11 14:46:00,
2013-09-11 10:51:00,84.0,72.0,29.99,NNW,334,7.0,7.0,67,0.00,,,0.00,meteohub,2013-09-11 14:51:00,
2013-09-11 10:56:00,84.0,71.4,29.99,NNW,347,4.0,7.0,66,0.00,,,0.00,meteohub,2013-09-11 14:56:00,
2013-09-11 11:02:00,84.2,71.6,29.99,NW,316,2.0,8.0,66,0.00,,,0.00,meteohub,2013-09-11 15:02:00,
2013-09-11 11:07:00,84.4,71.2,29.99,NNW,334,8.0,8.0,65,0.00,,,0.00,meteohub,2013-09-11 15:07:00,
2013-09-11 11:12:00,84.4,70.9,29.99,North,352,7.0,8.0,64,0.00,,,0.00,meteohub,2013-09-11 15:12:00,
2013-09-11 11:16:00,84.6,71.1,29.99,NNW,345,9.0,10.0,64,0.00,,,0.00,meteohub,2013-09-11 15:16:00,
2013-09-11 11:21:00,84.6,71.1,29.99,NNW,346,6.0,10.0,64,0.00,,,0.00,meteohub,2013-09-11 15:21:00,
2013-09-11 11:26:00,84.9,70.0,29.99,NNW,327,8.0,10.0,61,0.00,,,0.00,meteohub,2013-09-11 15:26:00,
2013-09-11 11:31:00,85.3,70.7,29.99,NW,311,0.0,12.0,62,0.00,,,0.00,meteohub,2013-09-11 15:31:00,
2013-09-11 11:36:00,85.5,70.9,29.99,West,274,0.0,12.0,62,0.00,,,0.00,meteohub,2013-09-11 15:36:00,
2013-09-11 11:41:00,85.6,70.2,29.99,NNW,343,10.0,12.0,60,0.00,,,0.00,meteohub,2013-09-11 15:41:00,
2013-09-11 11:46:00,86.0,71.1,29.99,NNW,336,0.0,11.0,61,0.00,,,0.00,meteohub,2013-09-11 15:46:00,
2013-09-11 11:51:00,86.2,70.7,29.99,NW,318,0.0,11.0,60,0.00,,,0.00,meteohub,2013-09-11 15:51:00,
2013-09-11 11:56:00,86.2,70.7,29.99,WSW,250,0.0,11.0,60,0.00,,,0.00,meteohub,2013-09-11 15:56:00,
2013-09-11 12:01:00,86.4,71.2,29.99,NW,321,0.0,8.0,61,0.00,,,0.00,meteohub,2013-09-11 16:01:00,
2013-09-11 12:06:00,86.5,71.4,29.99,WNW,301,6.0,7.0,61,0.00,,,0.00,meteohub,2013-09-11 16:06:00,
2013-09-11 12:12:00,86.5,71.4,29.98,WSW,239,0.0,8.0,61,0.00,,,0.00,meteohub,2013-09-11 16:12:00,
2013-09-11 12:17:00,87.1,71.4,29.98,North,349,2.0,8.0,60,0.00,,,0.00,meteohub,2013-09-11 16:17:00,
2013-09-11 12:22:00,87.1,71.1,29.98,NW,322,6.0,8.0,59,0.00,,,0.00,meteohub,2013-09-11 16:22:00,
2013-09-11 12:27:00,86.7,71.2,29.97,NNW,345,6.0,10.0,60,0.00,,,0.00,meteohub,2013-09-11 16:27:00,
2013-09-11 12:32:00,86.5,71.1,29.97,NW,313,1.0,10.0,60,0.00,,,0.00,meteohub,2013-09-11 16:32:00,
2013-09-11 12:37:00,86.7,70.2,29.98,West,274,1.0,10.0,58,0.00,,,0.00,meteohub,2013-09-11 16:37:00,
2013-09-11 12:42:00,87.3,70.7,29.97,NW,318,1.0,10.0,58,0.00,,,0.00,meteohub,2013-09-11 16:42:00,
2013-09-11 12:47:00,87.4,70.3,29.97,NNE,13,0.0,10.0,57,0.00,,,0.00,meteohub,2013-09-11 16:47:00,
2013-09-11 12:52:00,87.6,70.0,29.97,NNW,343,2.0,10.0,56,0.00,,,0.00,meteohub,2013-09-11 16:52:00,
2013-09-11 12:57:00,87.6,69.4,29.97,NW,305,0.0,7.0,55,0.00,,,0.00,meteohub,2013-09-11 16:57:00,
2013-09-11 13:02:00,88.0,70.3,29.97,NNW,329,1.0,7.0,56,0.00,,,0.00,meteohub,2013-09-11 17:02:00,
2013-09-11 13:07:00,88.3,69.6,29.97,NW,317,6.0,7.0,54,0.00,,,0.00,meteohub,2013-09-11 17:07:00,
2013-09-11 13:12:00,88.5,69.8,29.97,NNW,347,0.0,9.0,54,0.00,,,0.00,meteohub,2013-09-11 17:12:00,
2013-09-11 13:17:00,88.9,70.2,29.97,ENE,58,2.0,9.0,54,0.00,,,0.00,meteohub,2013-09-11 17:17:00,
2013-09-11 13:22:00,89.2,69.8,29.97,SSW,208,2.0,9.0,53,0.00,,,0.00,meteohub,2013-09-11 17:22:00,
2013-09-11 13:27:00,89.2,69.8,29.96,NW,324,4.0,7.0,53,0.00,,,0.00,meteohub,2013-09-11 17:27:00,
2013-09-11 13:32:00,88.9,69.6,29.96,NW,322,5.0,8.0,53,0.00,,,0.00,meteohub,2013-09-11 17:32:00,
2013-09-11 13:37:00,88.7,70.0,29.96,NNW,340,3.0,9.0,54,0.00,,,0.00,meteohub,2013-09-11 17:37:00,
2013-09-11 13:42:00,88.5,69.8,29.96,West,271,3.0,9.0,54,0.00,,,0.00,meteohub,2013-09-11 17:42:00,
2013-09-11 13:47:00,89.1,70.2,29.96,SSW,203,4.0,9.0,54,0.00,,,0.00,meteohub,2013-09-11 17:47:00,
2013-09-11 13:52:00,89.4,69.4,29.96,North,351,2.0,8.0,52,0.00,,,0.00,meteohub,2013-09-11 17:52:00,
2013-09-11 13:57:00,90.0,70.0,29.96,East,81,0.0,8.0,52,0.00,,,0.00,meteohub,2013-09-11 17:57:00,
2013-09-11 14:02:00,90.0,69.4,29.96,NNW,348,3.0,8.0,51,0.00,,,0.00,meteohub,2013-09-11 18:02:00,
2013-09-11 14:07:00,89.2,69.3,29.96,SW,232,0.0,9.0,52,0.00,,,0.00,meteohub,2013-09-11 18:07:00,
2013-09-11 14:12:00,89.2,69.3,29.96,NNW,328,0.0,9.0,52,0.00,,,0.00,meteohub,2013-09-11 18:12:00,
2013-09-11 14:17:00,89.2,69.3,29.96,NNW,348,0.0,9.0,52,0.00,,,0.00,meteohub,2013-09-11 18:17:00,
2013-09-11 14:22:00,89.1,70.2,29.96,North,3,2.0,9.0,54,0.00,,,0.00,meteohub,2013-09-11 18:22:00,
2013-09-11 14:27:00,88.7,70.5,29.96,NNW,344,7.0,9.0,55,0.00,,,0.00,meteohub,2013-09-11 18:27:00,
2013-09-11 14:32:00,88.7,70.0,29.96,WNW,303,1.0,10.0,54,0.00,,,0.00,meteohub,2013-09-11 18:32:00,
2013-09-11 14:37:00,88.5,69.3,29.96,NW,320,4.0,10.0,53,0.00,,,0.00,meteohub,2013-09-11 18:37:00,
2013-09-11 14:42:00,88.2,70.0,29.96,East,99,1.0,10.0,55,0.00,,,0.00,meteohub,2013-09-11 18:42:00,
2013-09-11 14:47:00,88.2,69.4,29.96,North,359,0.0,8.0,54,0.00,,,0.00,meteohub,2013-09-11 18:47:00,
2013-09-11 14:52:00,88.2,70.0,29.96,West,273,2.0,8.0,55,0.00,,,0.00,meteohub,2013-09-11 18:52:00,
2013-09-11 14:57:00,88.2,70.0,29.95,NNW,334,0.0,8.0,55,0.00,,,0.00,meteohub,2013-09-11 18:57:00,
2013-09-11 15:02:00,88.0,70.3,29.95,NW,326,3.0,8.0,56,0.00,,,0.00,meteohub,2013-09-11 19:02:00,
2013-09-11 15:07:00,87.6,69.4,29.95,NW,324,0.0,8.0,55,0.00,,,0.00,meteohub,2013-09-11 19:07:00,
2013-09-11 15:12:00,87.6,72.0,29.95,NW,325,0.0,7.0,60,0.00,,,0.00,meteohub,2013-09-11 19:12:00,
2013-09-11 15:17:00,87.4,71.4,29.95,SE,132,0.0,6.0,59,0.00,,,0.00,meteohub,2013-09-11 19:17:00,
2013-09-11 15:22:00,87.3,70.7,29.95,NNW,341,0.0,5.0,58,0.00,,,0.00,meteohub,2013-09-11 19:22:00,
2013-09-11 15:27:00,87.3,70.2,29.94,NNW,334,2.0,5.0,57,0.00,,,0.00,meteohub,2013-09-11 19:27:00,
2013-09-11 15:32:00,87.6,70.0,29.94,NNW,338,4.0,11.0,56,0.00,,,0.00,meteohub,2013-09-11 19:32:00,
2013-09-11 15:37:00,88.0,69.8,29.94,NW,320,4.0,11.0,55,0.00,,,0.00,meteohub,2013-09-11 19:37:00,
2013-09-11 15:42:00,88.2,70.0,29.94,NNW,337,1.0,11.0,55,0.00,,,0.00,meteohub,2013-09-11 19:42:00,
2013-09-11 15:47:00,88.3,70.7,29.94,NW,311,1.0,9.0,56,0.00,,,0.00,meteohub,2013-09-11 19:47:00,
2013-09-11 15:52:00,88.2,70.5,29.93,NW,319,3.0,9.0,56,0.00,,,0.00,meteohub,2013-09-11 19:52:00,
2013-09-11 15:57:00,88.2,70.5,29.93,North,353,0.0,9.0,56,0.00,,,0.00,meteohub,2013-09-11 19:57:00,
2013-09-11 16:02:00,88.0,70.9,29.93,North,353,0.0,5.0,57,0.00,,,0.00,meteohub,2013-09-11 20:02:00,
2013-09-11 16:07:00,87.6,70.0,29.93,NW,322,0.0,5.0,56,0.00,,,0.00,meteohub,2013-09-11 20:07:00,
2013-09-11 16:12:00,87.6,70.5,29.92,NW,310,2.0,5.0,57,0.00,,,0.00,meteohub,2013-09-11 20:12:00,
2013-09-11 16:17:00,87.4,70.3,29.92,NW,310,0.0,6.0,57,0.00,,,0.00,meteohub,2013-09-11 20:17:00,
2013-09-11 16:22:00,87.4,73.8,29.92,SSE,155,0.0,6.0,64,0.00,,,0.00,meteohub,2013-09-11 20:22:00,
2013-09-11 16:27:00,87.1,71.1,29.92,North,350,1.0,5.0,59,0.00,,,0.00,meteohub,2013-09-11 20:27:00,
2013-09-11 16:32:00,87.3,72.1,29.91,North,3,2.0,5.0,61,0.00,,,0.00,meteohub,2013-09-11 20:32:00,
2013-09-11 16:37:00,87.3,72.1,29.91,NNW,348,0.0,5.0,61,0.00,,,0.00,meteohub,2013-09-11 20:37:00,
2013-09-11 16:42:00,87.3,72.1,29.91,NNW,336,0.0,5.0,61,0.00,,,0.00,meteohub,2013-09-11 20:42:00,
2013-09-11 16:47:00,87.3,73.0,29.90,East,91,1.0,5.0,63,0.00,,,0.00,meteohub,2013-09-11 20:47:00,
2013-09-11 16:52:00,87.1,72.5,29.90,West,276,0.0,5.0,62,0.00,,,0.00,meteohub,2013-09-11 20:52:00,
2013-09-11 16:57:00,87.1,72.5,29.89,East,80,0.0,5.0,62,0.00,,,0.00,meteohub,2013-09-11 20:57:00,
2013-09-11 17:02:00,87.1,72.0,29.89,NNE,12,1.0,7.0,61,0.00,,,0.00,meteohub,2013-09-11 21:02:00,
2013-09-11 17:07:00,87.1,72.5,29.90,ESE,114,3.0,8.0,62,0.00,,,0.00,meteohub,2013-09-11 21:07:00,
2013-09-11 17:12:00,87.3,73.0,29.89,WSW,252,2.0,9.0,63,0.00,,,0.00,meteohub,2013-09-11 21:12:00,
2013-09-11 17:17:00,87.1,73.4,29.89,NNW,328,0.0,9.0,64,0.00,,,0.00,meteohub,2013-09-11 21:17:00,
2013-09-11 17:22:00,86.7,72.1,29.89,ESE,112,2.0,9.0,62,0.00,,,0.00,meteohub,2013-09-11 21:22:00,
2013-09-11 17:27:00,86.7,73.6,29.89,SW,227,0.0,5.0,65,0.00,,,0.00,meteohub,2013-09-11 21:27:00,
2013-09-11 17:32:00,86.5,73.4,29.89,ESE,120,0.0,7.0,65,0.00,,,0.00,meteohub,2013-09-11 21:32:00,
2013-09-11 17:37:00,86.0,72.3,29.89,SE,145,0.0,7.0,64,0.00,,,0.00,meteohub,2013-09-11 21:37:00,
2013-09-11 17:42:00,85.6,73.9,29.89,SE,145,0.0,5.0,68,0.00,,,0.00,meteohub,2013-09-11 21:42:00,
2013-09-11 17:47:00,85.3,73.9,29.90,SE,145,0.0,5.0,69,0.00,,,0.00,meteohub,2013-09-11 21:47:00,
2013-09-11 17:52:00,84.6,74.1,29.90,SE,145,0.0,5.0,71,0.00,,,0.00,meteohub,2013-09-11 21:52:00,
2013-09-11 17:57:00,83.7,74.5,29.90,NNW,347,0.0,1.0,74,0.00,,,0.00,meteohub,2013-09-11 21:57:00,
2013-09-11 18:02:00,82.9,74.7,29.90,NNW,347,0.0,2.0,76,0.00,,,0.00,meteohub,2013-09-11 22:02:00,
2013-09-11 18:07:00,82.2,74.7,29.90,NNW,347,0.0,2.0,78,0.00,,,0.00,meteohub,2013-09-11 22:07:00,
2013-09-11 18:12:00,81.3,74.5,29.90,NNW,347,0.0,1.0,80,0.00,,,0.00,meteohub,2013-09-11 22:12:00,
2013-09-11 18:17:00,81.0,74.1,29.90,SE,128,0.0,3.0,80,0.00,,,0.00,meteohub,2013-09-11 22:17:00,
2013-09-11 18:21:00,80.4,74.5,29.89,SE,128,0.0,3.0,82,0.00,,,0.00,meteohub,2013-09-11 22:21:00,
2013-09-11 18:26:00,80.1,74.1,29.89,SE,128,0.0,3.0,82,0.00,,,0.00,meteohub,2013-09-11 22:26:00,
2013-09-11 18:31:00,79.3,74.1,29.89,North,3,0.0,2.0,84,0.00,,,0.00,meteohub,2013-09-11 22:31:00,
2013-09-11 18:37:00,79.0,74.1,29.90,North,2,0.0,2.0,85,0.00,,,0.00,meteohub,2013-09-11 22:37:00,
2013-09-11 18:42:00,78.6,73.8,29.90,East,85,0.0,2.0,85,0.00,,,0.00,meteohub,2013-09-11 22:42:00,
2013-09-11 18:47:00,78.3,73.8,29.91,East,83,0.0,0.0,86,0.00,,,0.00,meteohub,2013-09-11 22:47:00,
2013-09-11 18:52:00,78.3,73.8,29.91,East,83,0.0,0.0,86,0.00,,,0.00,meteohub,2013-09-11 22:52:00,
2013-09-11 18:57:00,77.9,73.4,29.90,East,83,0.0,0.0,86,0.00,,,0.00,meteohub,2013-09-11 22:57:00,
2013-09-11 19:02:00,77.5,73.4,29.90,NE,45,0.0,0.0,87,0.00,,,0.00,meteohub,2013-09-11 23:02:00,
2013-09-11 19:07:00,77.2,73.4,29.90,NE,54,0.0,1.0,88,0.00,,,0.00,meteohub,2013-09-11 23:07:00,
2013-09-11 19:12:00,76.8,73.4,29.91,NE,54,0.0,1.0,89,0.00,,,0.00,meteohub,2013-09-11 23:12:00,
2013-09-11 19:17:00,76.5,73.2,29.91,NE,54,0.0,1.0,90,0.00,,,0.00,meteohub,2013-09-11 23:17:00,
2013-09-11 19:22:00,76.3,73.0,29.91,NE,54,0.0,1.0,90,0.00,,,0.00,meteohub,2013-09-11 23:22:00,
2013-09-11 19:27:00,76.3,73.0,29.91,NE,54,0.0,1.0,90,0.00,,,0.00,meteohub,2013-09-11 23:27:00,
2013-09-11 19:32:00,76.1,72.9,29.92,NE,54,0.0,1.0,90,0.00,,,0.00,meteohub,2013-09-11 23:32:00,
2013-09-11 19:37:00,75.9,72.9,29.91,NE,54,0.0,0.0,90,0.00,,,0.00,meteohub,2013-09-11 23:37:00,
2013-09-11 19:42:00,75.7,72.9,29.93,NE,54,0.0,0.0,91,0.00,,,0.00,meteohub,2013-09-11 23:42:00,
2013-09-11 19:47:00,75.7,72.9,29.95,WNW,291,3.0,0.0,91,0.00,,,0.00,meteohub,2013-09-11 23:47:00,
2013-09-11 19:52:00,76.8,69.1,30.01,WNW,289,9.0,0.0,77,0.00,,,0.00,meteohub,2013-09-11 23:52:00,
2013-09-11 19:57:00,74.8,67.8,30.04,NE,37,6.0,14.0,79,0.00,,,0.00,meteohub,2013-09-11 23:57:00,
2013-09-11 20:02:00,72.3,67.6,30.03,NNW,328,7.0,14.0,85,0.06,,,0.06,meteohub,2013-09-12 00:02:00,
2013-09-11 20:07:00,71.2,68.2,30.00,SE,139,1.0,14.0,90,0.14,,,0.14,meteohub,2013-09-12 00:07:00,
2013-09-11 20:13:00,70.5,67.5,29.98,NW,305,4.0,13.0,90,0.30,,,0.30,meteohub,2013-09-12 00:13:00,
2013-09-11 20:18:00,70.9,66.6,29.98,NNW,332,3.0,12.0,86,0.32,,,0.32,meteohub,2013-09-12 00:18:00,
2013-09-11 20:23:00,70.3,66.0,29.98,NNW,341,3.0,12.0,86,0.33,,,0.33,meteohub,2013-09-12 00:23:00,
2013-09-11 20:28:00,70.2,66.0,30.00,WNW,303,5.0,12.0,87,0.34,,,0.34,meteohub,2013-09-12 00:28:00,
2013-09-11 20:33:00,69.8,66.4,30.01,North,6,5.0,7.0,89,0.34,,,0.34,meteohub,2013-09-12 00:33:00,
2013-09-11 20:38:00,69.8,66.4,30.02,North,350,3.0,7.0,89,0.34,,,0.34,meteohub,2013-09-12 00:38:00,
2013-09-11 20:43:00,70.0,67.3,30.02,NNW,328,1.0,6.0,91,0.36,,,0.36,meteohub,2013-09-12 00:43:00,
2013-09-11 20:49:00,70.0,67.3,30.02,ESE,111,2.0,6.0,91,0.36,,,0.36,meteohub,2013-09-12 00:49:00,
2013-09-11 20:54:00,69.8,66.7,30.02,NW,326,1.0,6.0,90,0.37,,,0.37,meteohub,2013-09-12 00:54:00,
2013-09-11 20:59:00,69.8,67.1,30.01,SE,134,0.0,6.0,91,0.42,,,0.42,meteohub,2013-09-12 00:59:00,
2013-09-11 21:04:00,69.6,67.3,30.00,ESE,118,2.0,6.0,92,0.37,,,0.45,meteohub,2013-09-12 01:04:00,
2013-09-11 21:09:00,69.3,67.1,30.00,SSE,151,0.0,6.0,93,0.22,,,0.48,meteohub,2013-09-12 01:09:00,
2013-09-11 21:14:00,69.3,66.9,29.99,NNW,328,0.0,3.0,92,0.19,,,0.49,meteohub,2013-09-12 01:14:00,
2013-09-11 21:19:00,69.3,66.9,29.98,North,357,3.0,5.0,92,0.17,,,0.49,meteohub,2013-09-12 01:19:00,
2013-09-11 21:24:00,69.6,66.6,29.99,NW,326,1.0,5.0,90,0.15,,,0.49,meteohub,2013-09-12 01:24:00,
2013-09-11 21:29:00,70.0,66.6,29.98,North,353,0.0,9.0,89,0.15,,,0.49,meteohub,2013-09-12 01:29:00,
2013-09-11 21:34:00,70.0,67.3,29.97,ESE,123,0.0,9.0,91,0.15,,,0.49,meteohub,2013-09-12 01:34:00,
2013-09-11 21:39:00,69.8,66.4,29.97,SSE,149,1.0,9.0,89,0.15,,,0.49,meteohub,2013-09-12 01:39:00,
2013-09-11 21:45:00,69.6,66.2,29.96,SE,135,0.0,6.0,89,0.13,,,0.49,meteohub,2013-09-12 01:45:00,
2013-09-11 21:50:00,69.6,66.6,29.96,SSE,151,3.0,5.0,90,0.12,,,0.49,meteohub,2013-09-12 01:50:00,
2013-09-11 21:55:00,69.4,66.7,29.96,ESE,108,1.0,5.0,91,0.11,,,0.49,meteohub,2013-09-12 01:55:00,
2013-09-11 22:00:00,69.3,66.9,29.96,West,272,2.0,5.0,92,0.06,,,0.49,meteohub,2013-09-12 02:00:00,
2013-09-11 22:05:00,69.1,66.4,29.95,WNW,293,0.0,3.0,91,0.01,,,0.49,meteohub,2013-09-12 02:05:00,
2013-09-11 22:10:00,69.1,66.7,29.95,WNW,293,0.0,3.0,92,0.00,,,0.49,meteohub,2013-09-12 02:10:00,
2013-09-11 22:15:00,68.9,66.2,29.95,SSE,161,0.0,3.0,91,0.00,,,0.49,meteohub,2013-09-12 02:15:00,
2013-09-11 22:20:00,68.7,66.6,29.95,SSE,161,0.0,2.0,93,0.00,,,0.49,meteohub,2013-09-12 02:20:00,
2013-09-11 22:26:00,68.7,66.6,29.95,SSE,161,0.0,2.0,93,0.00,,,0.49,meteohub,2013-09-12 02:26:00,
2013-09-11 22:31:00,68.5,66.4,29.96,SW,218,1.0,2.0,93,0.00,,,0.49,meteohub,2013-09-12 02:31:00,
2013-09-11 22:36:00,68.4,66.6,29.96,SSW,195,0.0,2.0,94,0.00,,,0.49,meteohub,2013-09-12 02:36:00,
2013-09-11 22:41:00,68.2,66.4,29.96,SSW,195,0.0,2.0,94,0.00,,,0.49,meteohub,2013-09-12 02:41:00,
2013-09-11 22:46:00,68.0,66.6,29.96,SSW,195,1.0,2.0,95,0.00,,,0.49,meteohub,2013-09-12 02:46:00,
2013-09-11 22:51:00,67.8,66.4,29.96,SSW,195,0.0,2.0,95,0.00,,,0.49,meteohub,2013-09-12 02:51:00,
2013-09-11 22:56:00,67.8,66.4,29.96,SSW,195,0.0,2.0,95,0.00,,,0.49,meteohub,2013-09-12 02:56:00,
2013-09-11 23:01:00,67.8,66.4,29.96,SSW,195,0.0,2.0,95,0.00,,,0.49,meteohub,2013-09-12 03:01:00,
2013-09-11 23:06:00,67.6,66.2,29.96,SSW,199,0.0,2.0,95,0.00,,,0.49,meteohub,2013-09-12 03:06:00,
2013-09-11 23:11:00,67.6,66.2,29.96,NW,312,2.0,2.0,95,0.00,,,0.49,meteohub,2013-09-12 03:11:00,
2013-09-11 23:16:00,67.5,66.2,29.96,NW,320,1.0,3.0,96,0.00,,,0.49,meteohub,2013-09-12 03:16:00,
2013-09-11 23:21:00,67.5,66.2,29.96,WNW,302,0.0,4.0,96,0.00,,,0.49,meteohub,2013-09-12 03:21:00,
2013-09-11 23:26:00,67.5,66.2,29.95,WNW,302,0.0,4.0,96,0.00,,,0.49,meteohub,2013-09-12 03:26:00,
2013-09-11 23:32:00,67.5,66.2,29.94,NNW,336,2.0,4.0,96,0.00,,,0.49,meteohub,2013-09-12 03:32:00,
2013-09-11 23:37:00,67.5,66.2,29.93,NNW,338,0.0,3.0,96,0.00,,,0.49,meteohub,2013-09-12 03:37:00,
2013-09-11 23:42:00,67.3,66.0,29.93,North,349,1.0,4.0,96,0.00,,,0.49,meteohub,2013-09-12 03:42:00,
2013-09-11 23:47:00,67.3,66.0,29.92,NNW,341,2.0,4.0,96,0.00,,,0.49,meteohub,2013-09-12 03:47:00,
2013-09-11 23:52:00,67.3,66.0,29.92,NNW,341,1.0,3.0,96,0.00,,,0.49,meteohub,2013-09-12 03:52:00,
2013-09-11 23:57:00,67.1,65.8,29.92,NNW,341,0.0,3.0,96,0.01,,,0.50,meteohub,2013-09-12 03:57:00,